Motoplanete

Classement Motul Grand Prix du Japon Moto2 2015

Course disputée sur le circuit de Twin Ring Motegi

Position Numéro Pilote Team Temps Tours Points Départ
1 5 Johann Zarco Ajo Motorsport 18:38:20 15 25 1
2 94 Jonas Folger Agr Team 19:53:25 15 20 3
3 11 Sandro Cortese Dynavolt Intact Gp 22:55:33 15 16 9
4 25 Azlan Shah Idemitsu Honda Team Asia 23:27:28 15 13 12
5 55 Hafizh Syahrin Petronas Raceline Malaysia 00:59:18 15 11 6
6 88 Ricard Cardus Tech 3 01:34:30 15 10 17
7 3 Simone Corsi Athinà Forward Racing 01:47:39 15 9 16
8 22 Sam Lowes Speed Up 02:08:44 15 8 4
9 23 Marcel Schrotter Tech 3 02:16:25 15 7 21
10 4 Randy Krummenacher Jir Racing Team 02:26:02 15 6 18
11 40 Alex Rins Paginas Amarillas Hp 40 03:11:08 15 5 5
12 7 Lorenzo Baldassarri Athinà Forward Racing 03:43:05 15 4 10
13 71 Tomoyoshi Koyama Nts T.pro Project 04:04:55 15 3 29
14 72 Yuki Takahashi Moriwaki Racing 04:48:02 15 2 25
15 36 Mika Kallio Italtrans Racing Team 06:46:12 15 1 20
16 60 Julian Simon QMMF Racing Team 08:02:36 15 0 14
17 2 Jesko Raffin Sports-millions-emwe-sag 08:22:01 15 0 28
18 73 Alex Marquez Eg 0,0 Marc Vds 09:00:12 15 0 15
19 57 Edgar Pons Paginas Amarillas Hp 40 17:08:02 15 0 24
20 96 Louis Rossi Tasca Racing Scuderia Moto2 19:58:39 15 0 26
21 66 Florian Alt Octo Iodaracing Team 21:20:16 15 0 30
22 30 Takaaki Nakagami Idemitsu Honda Team Asia 22:43:47 15 0 7
23 70 Robin Mulhauser Technomag Racing Interwetten 02:08:11 13 0 22
24 39 Luis Salom Paginas Amarillas Hp 40 07:25:56 9 0 13
25 10 Thitipong Warokorn Aph Ptt The Pizza Sag 23:15:47 8 0 19
26 12 Thomas Luthi Derendinger Racing Interwetten 17:02:41 7 0 2
27 19 Xavier Simeon Federal Oil Gresini Moto2 11:43:11 5 0 11
28 49 Alex Pons Agr Team 13:44:48 4 0 8
29 97 Xavi Vierge Tech 3 00:44:22 4 0 27
30 16 Joshua Hook Technomag Racing Interwetten 13:47:03 3 0 23